createdAt,value
2022-08-18T00:02:15.867Z,6.53
2022-08-18T00:04:48.674Z,6.78
2022-08-18T00:07:19.398Z,6.90
2022-08-18T00:09:48.757Z,6.47
2022-08-18T00:12:18.083Z,6.05
2022-08-18T00:14:45.846Z,5.35
2022-08-18T00:17:13.975Z,4.97
2022-08-18T00:19:46.151Z,5.45
2022-08-18T00:22:16.158Z,7.75
2022-08-18T00:24:48.316Z,5.53
2022-08-18T00:27:21.593Z,6.03
2022-08-18T00:29:49.989Z,4.90
2022-08-18T00:32:19.884Z,5.43
2022-08-18T00:34:47.527Z,5.30
2022-08-18T00:37:15.163Z,4.93
2022-08-18T00:39:46.491Z,5.30
2022-08-18T00:42:29.122Z,5.15
2022-08-18T00:44:59.515Z,5.85
2022-08-18T00:47:41.274Z,8.98
2022-08-18T00:50:15.365Z,5.30
2022-08-18T00:52:47.213Z,5.00
2022-08-18T00:55:15.111Z,5.70
2022-08-18T00:57:44.168Z,5.03
2022-08-18T01:00:13.820Z,5.43
2022-08-18T01:02:43.903Z,4.88
2022-08-18T01:05:13.484Z,4.47
2022-08-18T01:07:43.850Z,4.75
2022-08-18T01:10:16.069Z,4.55
2022-08-18T01:12:46.937Z,4.90
2022-08-18T01:15:28.517Z,5.15
2022-08-18T01:18:15.752Z,4.63
2022-08-18T01:21:03.827Z,5.38
2022-08-18T01:23:32.902Z,5.10
2022-08-18T01:26:02.354Z,5.15
2022-08-18T01:28:30.194Z,3.75
2022-08-18T01:30:58.348Z,4.50
2022-08-18T01:33:30.053Z,4.88
2022-08-18T01:35:58.202Z,4.93
2022-08-18T01:38:26.277Z,4.43
2022-08-18T01:41:27.231Z,4.10
2022-08-18T01:43:43.062Z,4.43
2022-08-18T01:46:10.685Z,3.90
2022-08-18T01:48:38.499Z,3.92
2022-08-18T01:51:06.726Z,4.00
2022-08-18T01:53:34.337Z,4.82
2022-08-18T01:56:05.268Z,4.57
2022-08-18T01:58:32.959Z,3.50
2022-08-18T02:01:01.606Z,3.30
2022-08-18T02:03:30.617Z,3.75
2022-08-18T02:06:01.710Z,3.80
2022-08-18T02:08:29.382Z,4.65
2022-08-18T02:10:58.252Z,3.50
2022-08-18T02:13:27.246Z,4.13
2022-08-18T02:15:54.866Z,4.65
2022-08-18T02:18:45.266Z,3.50
2022-08-18T02:21:13.810Z,4.68
2022-08-18T02:23:41.625Z,4.63
2022-08-18T02:26:21.237Z,4.00
2022-08-18T02:28:50.189Z,4.05
2022-08-18T02:31:19.259Z,5.82
2022-08-18T02:33:51.849Z,4.25
2022-08-18T02:36:20.445Z,3.60
2022-08-18T02:38:54.859Z,3.47
2022-08-18T02:41:29.705Z,3.35
2022-08-18T02:43:59.029Z,3.40
2022-08-18T02:46:30.060Z,3.50
2022-08-18T02:48:58.822Z,4.63
2022-08-18T02:51:26.541Z,3.85
2022-08-18T02:53:54.364Z,3.83
2022-08-18T02:56:32.707Z,3.40
2022-08-18T02:59:10.858Z,3.47
2022-08-18T03:01:40.758Z,4.65
2022-08-18T03:04:09.585Z,5.43
2022-08-18T03:06:37.950Z,3.50
2022-08-18T03:09:05.726Z,3.60
2022-08-18T03:11:33.373Z,3.92
2022-08-18T03:14:01.344Z,3.53
2022-08-18T03:16:31.398Z,3.47
2022-08-18T03:18:59.109Z,3.20
2022-08-18T03:21:28.037Z,4.03
2022-08-18T03:24:00.859Z,4.15
2022-08-18T03:26:30.308Z,3.67
2022-08-18T03:28:58.400Z,3.65
2022-08-18T03:31:27.731Z,3.92
2022-08-18T03:33:59.375Z,3.72
2022-08-18T03:36:31.792Z,3.80
2022-08-18T03:38:59.425Z,4.28
2022-08-18T03:41:56.790Z,3.83
2022-08-18T03:44:15.641Z,4.15
2022-08-18T03:46:43.453Z,6.00
2022-08-18T03:49:12.729Z,3.88
2022-08-18T03:51:43.461Z,4.57
2022-08-18T03:54:13.264Z,4.30
2022-08-18T03:56:41.180Z,4.85
2022-08-18T03:59:27.607Z,3.58
2022-08-18T04:01:56.004Z,4.00
2022-08-18T04:04:43.633Z,3.90
2022-08-18T04:07:14.268Z,4.18
2022-08-18T04:09:42.952Z,4.20
2022-08-18T04:12:15.382Z,5.97
2022-08-18T04:14:46.464Z,4.00
2022-08-18T04:17:14.073Z,5.60
2022-08-18T04:19:43.118Z,4.10
2022-08-18T04:22:11.259Z,4.15
2022-08-18T04:24:45.801Z,4.78
2022-08-18T04:27:13.436Z,3.88
2022-08-18T04:29:41.121Z,5.38
2022-08-18T04:32:08.766Z,4.43
2022-08-18T04:34:36.432Z,4.80
2022-08-18T04:37:05.544Z,4.85
2022-08-18T04:39:33.214Z,4.72
2022-08-18T04:42:03.551Z,4.32
2022-08-18T04:44:31.757Z,4.38
2022-08-18T04:46:59.418Z,3.92
2022-08-18T04:49:27.877Z,4.00
2022-08-18T04:52:34.360Z,3.88
2022-08-18T04:55:03.541Z,4.30
2022-08-18T04:57:33.820Z,5.50
2022-08-18T05:00:02.781Z,4.03
2022-08-18T05:02:33.011Z,3.92
2022-08-18T05:05:01.264Z,4.60
2022-08-18T05:07:29.080Z,4.45
2022-08-18T05:09:56.886Z,4.47
2022-08-18T05:12:26.723Z,3.95
2022-08-18T05:14:56.680Z,5.00
2022-08-18T05:17:30.239Z,4.65
2022-08-18T05:19:58.745Z,5.25
2022-08-18T05:22:30.687Z,5.50
2022-08-18T05:24:59.878Z,5.50
2022-08-18T05:27:32.809Z,5.70
2022-08-18T05:30:00.409Z,4.57
2022-08-18T05:32:47.402Z,5.15
2022-08-18T05:35:19.528Z,5.22
2022-08-18T05:37:53.320Z,5.07
2022-08-18T05:40:21.857Z,4.65
2022-08-18T05:42:51.167Z,6.63
2022-08-18T05:45:19.473Z,5.88
2022-08-18T05:47:47.113Z,7.50
2022-08-18T05:50:16.570Z,6.45
2022-08-18T05:52:45.878Z,7.72
2022-08-18T05:55:32.518Z,6.63
2022-08-18T05:58:04.338Z,6.25
2022-08-18T06:00:32.247Z,6.40
2022-08-18T06:03:02.135Z,5.55
2022-08-18T06:05:31.970Z,8.05
2022-08-18T06:08:00.734Z,8.10
2022-08-18T06:10:28.422Z,7.82
2022-08-18T06:12:58.113Z,6.07
2022-08-18T06:15:43.645Z,7.47
2022-08-18T06:18:24.066Z,6.28
2022-08-18T06:21:17.298Z,7.45
2022-08-18T06:23:52.829Z,7.13
2022-08-18T06:26:23.248Z,6.20
2022-08-18T06:28:59.037Z,7.32
2022-08-18T06:31:33.999Z,7.90
2022-08-18T06:34:09.289Z,7.68
2022-08-18T06:36:40.650Z,8.02
2022-08-18T06:39:12.938Z,8.55
2022-08-18T06:41:43.845Z,6.97
2022-08-18T06:44:12.870Z,7.88
2022-08-18T06:46:46.793Z,6.47
2022-08-18T06:49:18.653Z,5.68
2022-08-18T06:51:46.254Z,6.70
2022-08-18T06:54:27.914Z,5.38
2022-08-18T06:56:56.121Z,7.07
2022-08-18T06:59:25.281Z,5.93
2022-08-18T07:01:55.700Z,5.90
2022-08-18T07:04:42.328Z,6.00
2022-08-18T07:07:21.400Z,8.65
2022-08-18T07:09:49.508Z,5.50
2022-08-18T07:12:23.323Z,5.70
2022-08-18T07:14:53.141Z,5.65
2022-08-18T07:17:42.339Z,5.45
2022-08-18T07:20:20.263Z,6.22
2022-08-18T07:22:56.065Z,5.90
2022-08-18T07:25:26.453Z,7.55
2022-08-18T07:27:56.199Z,4.95
2022-08-18T07:30:33.410Z,6.57
2022-08-18T07:33:08.099Z,5.50
2022-08-18T07:35:39.095Z,5.65
2022-08-18T07:38:41.045Z,6.13
2022-08-18T07:41:00.493Z,5.78
2022-08-18T07:43:32.118Z,5.18
2022-08-18T07:46:03.925Z,5.32
2022-08-18T07:48:38.516Z,6.38
2022-08-18T07:51:10.201Z,4.90
2022-08-18T07:53:55.817Z,5.00
2022-08-18T07:56:29.970Z,5.32
2022-08-18T07:58:59.699Z,4.80
2022-08-18T08:01:33.838Z,5.95
2022-08-18T08:04:25.997Z,5.22
2022-08-18T08:07:20.805Z,6.18
2022-08-18T08:09:51.640Z,5.20
2022-08-18T08:12:26.334Z,5.55
2022-08-18T08:14:58.163Z,4.57
2022-08-18T08:17:26.733Z,5.20
2022-08-18T08:20:08.793Z,5.53
2022-08-18T08:22:39.991Z,4.65
2022-08-18T08:25:35.053Z,4.85
2022-08-18T08:28:09.226Z,4.95
2022-08-18T08:30:38.989Z,4.60
2022-08-18T08:33:13.149Z,5.72
2022-08-18T08:35:49.339Z,5.78
2022-08-18T08:38:39.207Z,4.88
2022-08-18T08:41:10.457Z,4.80
2022-08-18T08:43:41.051Z,5.00
2022-08-18T08:46:11.154Z,5.03
2022-08-18T08:48:42.139Z,4.30
2022-08-18T08:51:20.534Z,5.18
2022-08-18T08:53:50.314Z,4.95
2022-08-18T08:56:18.928Z,4.22
2022-08-18T08:58:47.482Z,5.00
2022-08-18T09:01:24.606Z,5.15
2022-08-18T09:03:56.753Z,4.45
2022-08-18T09:06:30.188Z,4.40
2022-08-18T09:09:22.925Z,4.25
2022-08-18T09:12:04.676Z,4.95
2022-08-18T09:15:04.707Z,5.82
2022-08-18T09:18:12.872Z,4.30
2022-08-18T09:20:50.994Z,4.53
2022-08-18T09:23:21.086Z,3.95
2022-08-18T09:25:51.880Z,4.55
2022-08-18T09:28:20.767Z,4.20
2022-08-18T09:30:55.404Z,4.57
2022-08-18T09:33:30.018Z,4.20
2022-08-18T09:39:18.548Z,4.97
2022-08-18T09:41:50.628Z,4.93
2022-08-18T09:44:55.549Z,5.97
2022-08-18T09:48:00.545Z,5.13
2022-08-18T09:50:40.202Z,4.50
2022-08-18T09:53:32.559Z,4.25
2022-08-18T09:56:05.417Z,6.65
2022-08-18T09:58:56.593Z,4.95
2022-08-18T10:01:34.155Z,4.90
2022-08-18T10:04:32.052Z,8.73
2022-08-18T10:07:23.137Z,6.40
2022-08-18T10:10:12.790Z,172.43
2022-08-18T10:13:08.837Z,86.00
2022-08-18T10:15:48.824Z,76.88
2022-08-18T10:18:26.826Z,116.07
2022-08-18T10:21:00.200Z,83.93
2022-08-18T10:24:31.811Z,93.00
2022-08-18T10:27:13.175Z,72.25
2022-08-18T10:30:00.410Z,58.17
2022-08-18T10:32:52.083Z,61.83
2022-08-18T10:35:54.938Z,62.53
2022-08-18T10:38:25.695Z,65.30
2022-08-18T10:41:09.395Z,61.30
2022-08-18T10:43:55.249Z,40.13
2022-08-18T10:46:31.852Z,56.83
2022-08-18T10:49:04.467Z,38.15
2022-08-18T10:51:59.436Z,39.75
2022-08-18T10:54:35.023Z,45.00
2022-08-18T10:57:21.342Z,36.13
2022-08-18T10:59:54.428Z,27.55
2022-08-18T11:02:38.430Z,36.05
2022-08-18T11:05:06.652Z,27.60
2022-08-18T11:07:35.527Z,24.05
2022-08-18T11:10:32.744Z,22.25
2022-08-18T11:13:10.135Z,26.90
2022-08-18T11:15:44.026Z,25.00
2022-08-18T11:18:24.133Z,25.15
2022-08-18T11:20:52.284Z,25.15
2022-08-18T11:23:19.946Z,21.77
2022-08-18T11:28:38.953Z,17.90
2022-08-18T11:31:12.690Z,20.63
2022-08-18T11:33:42.541Z,16.95
2022-08-18T11:36:10.401Z,13.18
2022-08-18T11:38:39.455Z,14.02
2022-08-18T11:41:17.245Z,13.05
2022-08-18T11:43:47.440Z,14.73
2022-08-18T11:46:17.377Z,15.13
2022-08-18T11:48:53.957Z,13.55
2022-08-18T11:51:24.724Z,12.27
2022-08-18T11:53:58.673Z,12.43
2022-08-18T11:56:31.295Z,11.65
2022-08-18T11:59:00.435Z,11.15
2022-08-18T12:01:34.923Z,12.20
2022-08-18T12:04:16.624Z,10.98
2022-08-18T12:06:59.446Z,13.73
2022-08-18T12:12:22.229Z,11.32
2022-08-18T12:15:02.932Z,11.32
2022-08-18T12:17:40.509Z,10.50
2022-08-18T12:20:11.901Z,9.18
2022-08-18T12:22:40.582Z,9.82
2022-08-18T12:25:12.222Z,10.52
2022-08-18T12:27:40.128Z,10.90
2022-08-18T12:30:08.901Z,8.85
2022-08-18T12:32:50.357Z,9.07
2022-08-18T12:35:23.683Z,9.65
2022-08-18T12:38:04.937Z,8.02
2022-08-18T12:40:40.293Z,10.27
2022-08-18T12:43:08.016Z,8.30
2022-08-18T12:45:37.429Z,8.25
2022-08-18T12:48:06.855Z,9.27
2022-08-18T12:50:49.969Z,7.53
2022-08-18T12:53:30.623Z,8.07
2022-08-18T12:56:06.969Z,7.88
2022-08-18T12:58:36.586Z,7.75
2022-08-18T13:01:04.349Z,9.18
2022-08-18T13:03:35.251Z,8.88
2022-08-18T13:06:06.334Z,9.98
2022-08-18T13:08:47.755Z,8.60
2022-08-18T13:11:21.682Z,8.65
2022-08-18T13:13:56.081Z,9.45
2022-08-18T13:16:30.627Z,7.97
2022-08-18T13:19:06.962Z,7.40
2022-08-18T13:21:40.955Z,8.68
2022-08-18T13:24:09.457Z,7.57
2022-08-18T13:26:39.973Z,8.02
2022-08-18T13:29:10.018Z,8.40
2022-08-18T13:31:38.654Z,7.72
2022-08-18T13:34:11.602Z,7.78
2022-08-18T13:36:48.298Z,7.60
2022-08-18T13:39:17.471Z,9.10
2022-08-18T13:41:45.653Z,6.95
2022-08-18T13:44:18.549Z,7.28
2022-08-18T13:46:48.090Z,9.57
2022-08-18T13:49:15.944Z,8.90
2022-08-18T13:51:49.446Z,7.43
2022-08-18T13:54:30.904Z,7.07
2022-08-18T13:57:00.139Z,10.07
2022-08-18T13:59:31.549Z,8.32
2022-08-18T14:01:59.431Z,7.13
2022-08-18T14:04:28.331Z,10.20
2022-08-18T14:06:59.917Z,7.80
2022-08-18T14:09:37.640Z,7.57
2022-08-18T14:12:07.130Z,9.77
2022-08-18T14:14:44.103Z,9.32
2022-08-18T14:17:11.757Z,7.63
2022-08-18T14:19:56.793Z,7.88
2022-08-18T14:22:43.556Z,8.20
2022-08-18T14:25:28.909Z,7.30
2022-08-18T14:27:57.134Z,7.30
2022-08-18T14:30:25.030Z,7.22
2022-08-18T14:32:53.851Z,6.78
2022-08-18T14:35:33.765Z,7.93
2022-08-18T14:38:11.190Z,9.63
2022-08-18T14:40:41.882Z,8.40
2022-08-18T14:43:14.119Z,6.78
2022-08-18T14:45:48.935Z,7.03
2022-08-18T14:48:17.926Z,8.82
2022-08-18T14:50:49.154Z,7.18
2022-08-18T14:53:37.112Z,7.03
2022-08-18T14:56:28.483Z,7.32
2022-08-18T14:59:17.373Z,8.15
2022-08-18T15:01:47.043Z,7.95
2022-08-18T15:04:19.213Z,7.82
2022-08-18T15:06:56.644Z,10.60
2022-08-18T15:09:27.314Z,7.30
2022-08-18T15:11:56.761Z,7.68
2022-08-18T15:14:26.611Z,7.30
2022-08-18T15:17:00.981Z,13.85
2022-08-18T15:19:59.577Z,7.38
2022-08-18T15:22:33.742Z,8.60
2022-08-18T15:25:21.246Z,7.80
2022-08-18T15:27:52.380Z,7.50
2022-08-18T15:30:20.760Z,7.38
2022-08-18T15:32:49.725Z,9.02
2022-08-18T15:35:17.760Z,7.47
2022-08-18T15:37:51.163Z,7.75
2022-08-18T15:40:31.140Z,10.80
2022-08-18T15:43:03.908Z,10.05
2022-08-18T15:45:35.304Z,9.73
2022-08-18T15:48:03.637Z,7.22
2022-08-18T15:50:31.877Z,7.22
2022-08-18T15:53:00.900Z,10.32
2022-08-18T15:55:35.919Z,8.55
2022-08-18T15:58:10.836Z,7.93
2022-08-18T16:00:42.160Z,8.13
2022-08-18T16:03:12.009Z,9.48
2022-08-18T16:05:41.671Z,9.02
2022-08-18T16:08:11.753Z,24.35
2022-08-18T16:10:41.241Z,11.00
2022-08-18T16:13:08.913Z,10.35
2022-08-18T16:15:37.960Z,9.32
2022-08-18T16:18:06.717Z,9.43
2022-08-18T16:20:34.560Z,10.82
2022-08-18T16:23:02.240Z,11.55
2022-08-18T16:25:29.943Z,13.65
2022-08-18T16:28:00.323Z,9.95
2022-08-18T16:30:28.529Z,11.35
2022-08-18T16:32:57.810Z,10.98
2022-08-18T16:35:25.412Z,13.02
2022-08-18T16:37:53.137Z,9.85
2022-08-18T16:40:21.091Z,12.18
2022-08-18T16:42:49.165Z,9.05
2022-08-18T16:45:23.030Z,7.70
2022-08-18T16:47:50.727Z,7.88
2022-08-18T16:50:19.292Z,8.93
2022-08-18T16:52:46.919Z,8.05
2022-08-18T16:55:14.566Z,4.18
2022-08-18T16:58:00.132Z,3.92
2022-08-18T17:00:49.833Z,3.85
2022-08-18T17:03:40.322Z,4.75
2022-08-18T17:06:09.345Z,4.93
2022-08-18T17:08:37.113Z,6.43
2022-08-18T17:11:05.111Z,4.00
2022-08-18T17:13:32.847Z,2.53
2022-08-18T17:16:01.812Z,4.07
2022-08-18T17:18:30.304Z,5.03
2022-08-18T17:20:58.263Z,3.45
2022-08-18T17:23:27.342Z,4.00
2022-08-18T17:25:54.928Z,5.00
2022-08-18T17:28:25.868Z,1.90
2022-08-18T17:30:53.836Z,5.13
2022-08-18T17:33:24.770Z,1.70
2022-08-18T17:35:54.034Z,3.83
2022-08-18T17:38:24.865Z,4.72
2022-08-18T17:40:54.849Z,3.20
2022-08-18T17:43:23.125Z,3.03
2022-08-18T17:45:54.241Z,2.45
2022-08-18T17:48:24.924Z,5.82
2022-08-18T17:51:11.542Z,2.00
2022-08-18T17:53:39.326Z,2.80
2022-08-18T17:56:08.808Z,4.07
2022-08-18T17:58:40.278Z,2.58
2022-08-18T18:01:08.060Z,2.08
2022-08-18T18:03:37.097Z,1.23
2022-08-18T18:06:09.779Z,3.13
2022-08-18T18:08:55.652Z,3.28
2022-08-18T18:11:28.557Z,4.07
2022-08-18T18:13:56.161Z,2.75
2022-08-18T18:16:29.720Z,1.52
2022-08-18T18:19:01.698Z,4.63
2022-08-18T18:21:55.414Z,2.63
2022-08-18T18:24:24.128Z,1.77
2022-08-18T18:26:52.113Z,3.30
2022-08-18T18:29:21.799Z,1.90
2022-08-18T18:31:58.544Z,2.65
2022-08-18T18:34:30.728Z,2.55
2022-08-18T18:36:59.492Z,2.03
2022-08-18T18:39:33.075Z,2.42
2022-08-18T18:42:17.554Z,5.53
2022-08-18T18:44:51.537Z,2.92
2022-08-18T18:47:31.745Z,3.78
2022-08-18T18:50:04.281Z,4.10
2022-08-18T18:52:37.156Z,4.18
2022-08-18T18:55:06.605Z,4.65
2022-08-18T18:57:40.205Z,4.00
2022-08-18T19:00:18.228Z,5.25
2022-08-18T19:02:59.517Z,3.95
2022-08-18T19:05:34.433Z,5.30
2022-08-18T19:08:05.576Z,5.13
2022-08-18T19:10:36.435Z,4.85
2022-08-18T19:13:07.967Z,5.45
2022-08-18T19:15:38.373Z,6.50
2022-08-18T19:18:22.177Z,5.03
2022-08-18T19:22:01.721Z,6.00
2022-08-18T19:23:44.888Z,5.07
2022-08-18T19:26:15.529Z,5.80
2022-08-18T19:29:12.285Z,6.57
2022-08-18T19:31:36.313Z,4.93
2022-08-18T19:34:08.588Z,6.97
2022-08-18T19:36:43.894Z,6.63
2022-08-18T19:39:14.005Z,7.03
2022-08-18T19:41:47.188Z,6.80
2022-08-18T19:44:25.727Z,6.40
2022-08-18T19:46:54.392Z,5.72
2022-08-18T19:49:26.160Z,6.25
2022-08-18T19:51:56.853Z,5.43
2022-08-18T19:54:35.742Z,5.50
2022-08-18T19:57:13.781Z,5.40
2022-08-18T20:00:04.207Z,7.20
2022-08-18T20:02:35.545Z,6.10
2022-08-18T20:05:14.625Z,5.60
2022-08-18T20:07:57.344Z,5.70
2022-08-18T20:10:31.878Z,5.45
2022-08-18T20:13:21.288Z,5.22
2022-08-18T20:15:59.945Z,5.72
2022-08-18T20:18:35.406Z,5.22
2022-08-18T20:21:45.365Z,5.90
2022-08-18T20:24:38.312Z,5.25
2022-08-18T20:27:36.949Z,5.85
2022-08-18T20:30:32.734Z,4.72
2022-08-18T20:33:16.433Z,4.80
2022-08-18T20:35:47.346Z,4.20
2022-08-18T20:38:19.244Z,4.68
2022-08-18T20:40:49.867Z,4.15
2022-08-18T20:43:30.258Z,4.15
2022-08-18T20:46:06.801Z,4.38
2022-08-18T20:48:42.836Z,3.30
2022-08-18T20:51:11.288Z,4.10
2022-08-18T20:53:52.985Z,3.67
2022-08-18T20:56:31.954Z,3.78
2022-08-18T20:59:08.931Z,3.28
2022-08-18T21:01:36.792Z,3.30
2022-08-18T21:04:04.694Z,3.00
2022-08-18T21:06:36.085Z,3.85
2022-08-18T21:09:03.766Z,2.80
2022-08-18T21:11:37.234Z,2.72
2022-08-18T21:14:04.947Z,2.83
2022-08-18T21:16:40.583Z,2.88
2022-08-18T21:19:13.753Z,2.47
2022-08-18T21:21:42.584Z,2.63
2022-08-18T21:24:22.626Z,2.03
2022-08-18T21:26:51.649Z,2.55
2022-08-18T21:29:19.696Z,2.88
2022-08-18T21:31:47.829Z,2.92
2022-08-18T21:34:18.324Z,2.10
2022-08-18T21:36:50.369Z,2.25
2022-08-18T21:39:19.083Z,2.33
2022-08-18T21:41:52.541Z,2.55
2022-08-18T21:44:21.849Z,2.00
2022-08-18T21:46:49.793Z,2.42
2022-08-18T21:49:24.171Z,2.40
2022-08-18T21:51:52.151Z,2.13
2022-08-18T21:54:21.514Z,1.98
2022-08-18T21:56:49.214Z,2.20
2022-08-18T21:59:20.736Z,2.10
2022-08-18T22:01:49.459Z,2.30
2022-08-18T22:04:25.720Z,2.35
2022-08-18T22:06:54.617Z,2.45
2022-08-18T22:09:41.260Z,2.47
2022-08-18T22:12:46.266Z,2.20
2022-08-18T22:15:17.423Z,2.10
2022-08-18T22:17:52.466Z,2.40
2022-08-18T22:20:37.070Z,2.33
2022-08-18T22:23:28.533Z,2.45
2022-08-18T22:26:06.406Z,2.42
2022-08-18T22:28:34.193Z,2.35
2022-08-18T22:31:03.160Z,2.40
2022-08-18T22:33:30.836Z,2.50
2022-08-18T22:35:58.477Z,3.15
2022-08-18T22:38:26.164Z,2.55
2022-08-18T22:40:53.768Z,2.50
2022-08-18T22:43:21.893Z,2.33
2022-08-18T22:45:49.501Z,2.50
2022-08-18T22:48:18.505Z,3.40
2022-08-18T22:50:47.569Z,2.38
2022-08-18T22:53:15.232Z,2.60
2022-08-18T22:55:42.856Z,2.65
2022-08-18T22:58:10.713Z,3.65
2022-08-18T23:00:38.684Z,3.03
2022-08-18T23:03:08.617Z,2.97
2022-08-18T23:05:37.601Z,2.83
2022-08-18T23:08:05.656Z,3.28
2022-08-18T23:10:33.285Z,2.95
2022-08-18T23:13:04.401Z,3.03
2022-08-18T23:15:48.193Z,3.83
2022-08-18T23:18:19.034Z,3.95
2022-08-18T23:20:48.955Z,3.67
2022-08-18T23:23:17.086Z,3.38
2022-08-18T23:25:44.677Z,3.10
2022-08-18T23:28:12.410Z,3.05
2022-08-18T23:30:40.844Z,3.50
2022-08-18T23:33:10.415Z,4.22
2022-08-18T23:35:38.038Z,3.92
2022-08-18T23:38:07.902Z,3.75
2022-08-18T23:40:35.619Z,4.38
2022-08-18T23:43:03.277Z,4.10
2022-08-18T23:45:30.861Z,3.65
2022-08-18T23:47:58.460Z,3.95
2022-08-18T23:50:28.784Z,4.68
2022-08-18T23:52:57.257Z,4.90
2022-08-18T23:55:26.331Z,4.50
2022-08-18T23:57:53.957Z,4.10
